createdAt,value
2023-03-24T00:01:42.401Z,1.60
2023-03-24T00:04:15.995Z,1.50
2023-03-24T00:06:49.712Z,1.70
2023-03-24T00:09:22.689Z,2.00
2023-03-24T00:11:55.835Z,1.98
2023-03-24T00:14:31.011Z,1.45
2023-03-24T00:17:04.056Z,1.42
2023-03-24T00:19:39.717Z,1.60
2023-03-24T00:22:18.773Z,1.52
2023-03-24T00:24:51.443Z,1.75
2023-03-24T00:27:24.485Z,1.90
2023-03-24T00:29:59.830Z,1.95
2023-03-24T00:32:33.507Z,2.28
2023-03-24T00:35:09.202Z,1.73
2023-03-24T00:37:43.344Z,2.05
2023-03-24T00:40:17.300Z,1.83
2023-03-24T00:42:50.725Z,1.60
2023-03-24T00:45:26.255Z,1.83
2023-03-24T00:47:59.915Z,1.73
2023-03-24T00:50:34.359Z,1.70
2023-03-24T00:53:07.401Z,2.28
2023-03-24T00:55:40.045Z,1.70
2023-03-24T00:58:18.461Z,1.75
2023-03-24T01:00:52.639Z,1.35
2023-03-24T01:03:28.704Z,2.42
2023-03-24T01:06:04.000Z,2.80
2023-03-24T01:08:39.111Z,2.15
2023-03-24T01:11:13.260Z,2.75
2023-03-24T01:13:46.660Z,2.00
2023-03-24T01:16:20.009Z,1.55
2023-03-24T01:18:53.398Z,2.30
2023-03-24T01:21:26.028Z,2.17
2023-03-24T01:23:59.127Z,2.40
2023-03-24T01:26:31.885Z,2.25
2023-03-24T01:29:05.110Z,3.08
2023-03-24T01:31:38.331Z,3.80
2023-03-24T01:34:11.448Z,3.00
2023-03-24T01:36:44.206Z,3.10
2023-03-24T01:39:17.323Z,2.22
2023-03-24T01:41:50.058Z,1.58
2023-03-24T01:44:26.587Z,2.10
2023-03-24T01:46:59.689Z,2.33
2023-03-24T01:49:38.165Z,2.15
2023-03-24T01:52:14.318Z,1.95
2023-03-24T01:55:08.438Z,2.63
2023-03-24T01:57:43.511Z,3.20
2023-03-24T02:00:19.680Z,3.45
2023-03-24T02:03:22.652Z,2.42
2023-03-24T02:06:02.799Z,2.17
2023-03-24T02:08:42.599Z,2.10
2023-03-24T02:11:16.103Z,1.77
2023-03-24T02:13:56.130Z,1.85
2023-03-24T02:16:52.529Z,1.65
2023-03-24T02:19:27.038Z,1.30
2023-03-24T02:22:38.680Z,1.60
2023-03-24T02:25:17.615Z,1.50
2023-03-24T02:27:56.547Z,1.88
2023-03-24T02:30:47.847Z,1.77
2023-03-24T02:33:39.768Z,1.45
2023-03-24T02:36:15.995Z,1.73
2023-03-24T02:39:07.777Z,1.42
2023-03-24T02:41:40.467Z,1.42
2023-03-24T02:44:32.361Z,1.73
2023-03-24T02:47:10.955Z,1.58
2023-03-24T02:49:46.875Z,1.50
2023-03-24T02:52:47.013Z,1.88
2023-03-24T02:55:20.135Z,1.30
2023-03-24T02:57:56.415Z,1.35
2023-03-24T03:01:03.767Z,1.40
2023-03-24T03:03:54.827Z,1.90
2023-03-24T03:06:34.626Z,1.13
2023-03-24T03:09:12.436Z,1.35
2023-03-24T03:11:50.295Z,1.80
2023-03-24T03:14:33.214Z,1.40
2023-03-24T03:17:06.784Z,1.27
2023-03-24T03:19:41.712Z,1.77
2023-03-24T03:22:19.570Z,1.67
2023-03-24T03:24:54.947Z,1.77
2023-03-24T03:27:31.712Z,1.55
2023-03-24T03:30:06.880Z,1.73
2023-03-24T03:32:43.715Z,1.40
2023-03-24T03:35:20.023Z,1.50
2023-03-24T03:38:05.863Z,1.63
2023-03-24T03:40:56.177Z,1.50
2023-03-24T03:43:34.638Z,1.90
2023-03-24T03:46:07.855Z,1.50
2023-03-24T03:48:43.894Z,1.83
2023-03-24T03:51:16.807Z,1.52
2023-03-24T03:53:58.703Z,1.88
2023-03-24T03:56:34.104Z,1.80
2023-03-24T03:59:27.651Z,2.35
2023-03-24T04:02:15.877Z,2.00
2023-03-24T04:05:06.584Z,1.83
2023-03-24T04:08:04.011Z,1.92
2023-03-24T04:10:56.858Z,1.67
2023-03-24T04:13:48.528Z,1.70
2023-03-24T04:16:44.682Z,2.03
2023-03-24T04:19:43.102Z,1.50
2023-03-24T04:22:19.245Z,1.40
2023-03-24T04:25:00.690Z,1.65
2023-03-24T04:27:51.510Z,1.70
2023-03-24T04:30:26.949Z,1.83
2023-03-24T04:33:31.595Z,1.75
2023-03-24T04:36:19.224Z,2.38
2023-03-24T04:39:17.561Z,1.60
2023-03-24T04:41:58.050Z,1.40
2023-03-24T04:44:33.567Z,1.85
2023-03-24T04:47:26.624Z,1.75
2023-03-24T04:50:32.906Z,1.80
2023-03-24T04:53:08.659Z,2.00
2023-03-24T04:55:56.471Z,1.70
2023-03-24T04:58:49.458Z,1.95
2023-03-24T05:01:23.103Z,2.03
2023-03-24T05:04:16.585Z,1.80
2023-03-24T05:06:52.341Z,2.20
2023-03-24T05:09:32.411Z,1.85
2023-03-24T05:12:06.733Z,2.30
2023-03-24T05:14:52.321Z,2.53
2023-03-24T05:17:25.303Z,2.00
2023-03-24T05:19:58.096Z,1.80
2023-03-24T05:22:31.197Z,2.50
2023-03-24T05:25:05.534Z,5.00
2023-03-24T05:27:38.740Z,2.42
2023-03-24T05:30:26.030Z,3.17
2023-03-24T05:33:08.105Z,2.30
2023-03-24T05:35:40.881Z,3.33
2023-03-24T05:38:14.597Z,4.25
2023-03-24T05:40:51.215Z,2.63
2023-03-24T05:43:25.366Z,2.40
2023-03-24T05:46:08.457Z,3.10
2023-03-24T05:48:41.565Z,3.15
2023-03-24T05:51:18.063Z,2.20
2023-03-24T05:53:53.087Z,2.17
2023-03-24T05:56:39.592Z,1.80
2023-03-24T05:59:12.643Z,2.88
2023-03-24T06:02:03.625Z,2.28
2023-03-24T06:04:58.137Z,2.80
2023-03-24T06:07:32.627Z,2.97
2023-03-24T06:10:08.204Z,3.20
2023-03-24T06:12:48.534Z,2.93
2023-03-24T06:15:24.731Z,3.60
2023-03-24T06:17:57.739Z,3.28
2023-03-24T06:20:41.845Z,1.88
2023-03-24T06:23:17.635Z,1.70
2023-03-24T06:26:04.370Z,4.10
2023-03-24T06:28:40.113Z,3.35
2023-03-24T06:31:21.838Z,3.47
2023-03-24T06:33:57.160Z,3.15
2023-03-24T06:36:30.568Z,3.40
2023-03-24T06:39:03.709Z,2.78
2023-03-24T06:41:37.017Z,2.33
2023-03-24T06:44:09.729Z,2.33
2023-03-24T06:46:43.239Z,1.83
2023-03-24T06:49:16.483Z,1.80
2023-03-24T06:51:49.560Z,2.28
2023-03-24T06:54:23.505Z,2.10
2023-03-24T06:56:58.255Z,2.60
2023-03-24T06:59:36.758Z,1.98
2023-03-24T07:02:12.986Z,2.30
2023-03-24T07:04:49.415Z,2.30
2023-03-24T07:10:40.077Z,1.95
2023-03-24T07:13:13.623Z,1.85
2023-03-24T07:15:47.671Z,1.50
2023-03-24T07:18:20.928Z,1.67
2023-03-24T07:20:59.762Z,2.13
2023-03-24T07:23:34.113Z,2.80
2023-03-24T07:26:19.867Z,2.10
2023-03-24T07:28:52.982Z,2.30
2023-03-24T07:31:45.260Z,1.52
2023-03-24T07:34:20.679Z,2.08
2023-03-24T07:36:53.796Z,1.52
2023-03-24T07:39:26.920Z,1.23
2023-03-24T07:41:59.799Z,1.80
2023-03-24T07:44:43.291Z,1.70
2023-03-24T07:47:17.064Z,2.00
2023-03-24T07:49:50.622Z,1.88
2023-03-24T07:52:24.451Z,1.60
2023-03-24T07:54:59.149Z,2.05
2023-03-24T07:57:48.775Z,1.60
2023-03-24T08:00:22.276Z,2.13
2023-03-24T08:03:16.406Z,1.60
2023-03-24T08:06:09.199Z,1.52
2023-03-24T08:08:47.828Z,1.90
2023-03-24T08:11:20.861Z,1.70
2023-03-24T08:13:53.698Z,1.35
2023-03-24T08:16:26.797Z,1.52
2023-03-24T08:18:59.763Z,1.55
2023-03-24T08:21:32.707Z,1.48
2023-03-24T08:24:07.508Z,1.38
2023-03-24T08:26:41.113Z,1.40
2023-03-24T08:29:13.943Z,1.80
2023-03-24T08:31:47.000Z,1.42
2023-03-24T08:34:19.805Z,1.30
2023-03-24T08:36:53.048Z,1.48
2023-03-24T08:39:26.193Z,1.50
2023-03-24T08:41:59.295Z,1.00
2023-03-24T08:44:32.979Z,1.55
2023-03-24T08:47:06.261Z,1.70
2023-03-24T08:49:39.259Z,1.50
2023-03-24T08:52:12.465Z,1.50
2023-03-24T08:54:45.126Z,0.95
2023-03-24T08:57:18.324Z,1.30
2023-03-24T08:59:51.502Z,1.20
2023-03-24T09:02:24.758Z,0.88
2023-03-24T09:04:57.554Z,1.48
2023-03-24T09:07:30.539Z,0.98
2023-03-24T09:10:03.216Z,1.05
2023-03-24T09:12:37.007Z,1.70
2023-03-24T09:15:11.764Z,1.38
2023-03-24T09:17:46.372Z,1.67
2023-03-24T09:20:20.315Z,0.98
2023-03-24T09:22:53.446Z,1.75
2023-03-24T09:25:26.088Z,1.75
2023-03-24T09:27:59.201Z,1.00
2023-03-24T09:30:33.964Z,1.00
2023-03-24T09:33:08.204Z,1.00
2023-03-24T09:35:41.515Z,1.33
2023-03-24T09:38:14.612Z,1.60
2023-03-24T09:40:50.151Z,1.77
2023-03-24T09:43:23.240Z,2.30
2023-03-24T09:45:57.585Z,1.90
2023-03-24T09:48:52.041Z,1.70
2023-03-24T09:51:26.118Z,2.30
2023-03-24T09:54:08.340Z,2.17
2023-03-24T09:59:30.164Z,2.00
2023-03-24T10:02:07.433Z,2.03
2023-03-24T10:04:40.791Z,2.38
2023-03-24T10:07:13.676Z,2.47
2023-03-24T10:09:49.107Z,1.42
2023-03-24T10:12:36.125Z,2.30
2023-03-24T10:15:35.137Z,2.55
2023-03-24T10:18:12.874Z,1.70
2023-03-24T10:21:15.380Z,2.10
2023-03-24T10:26:20.773Z,2.08
2023-03-24T10:29:05.142Z,2.65
2023-03-24T10:31:39.194Z,2.50
2023-03-24T10:34:12.915Z,2.70
2023-03-24T10:36:46.341Z,2.10
2023-03-24T10:39:21.183Z,2.15
2023-03-24T10:42:00.016Z,2.22
2023-03-24T10:44:33.036Z,2.75
2023-03-24T10:47:09.012Z,1.98
2023-03-24T10:49:52.724Z,2.92
2023-03-24T10:52:26.321Z,2.60
2023-03-24T10:55:03.941Z,2.33
2023-03-24T10:57:43.177Z,2.10
2023-03-24T11:00:30.019Z,2.20
2023-03-24T11:03:08.846Z,2.00
2023-03-24T11:05:42.365Z,2.47
2023-03-24T11:08:24.193Z,2.72
2023-03-24T11:10:56.873Z,2.20
2023-03-24T11:13:34.021Z,2.20
2023-03-24T11:16:12.525Z,2.10
2023-03-24T11:18:55.538Z,2.17
2023-03-24T11:21:32.676Z,1.77
2023-03-24T11:24:24.162Z,2.13
2023-03-24T11:27:00.522Z,2.65
2023-03-24T11:29:35.152Z,2.17
2023-03-24T11:32:17.115Z,3.03
2023-03-24T11:34:52.976Z,2.05
2023-03-24T11:37:27.944Z,2.22
2023-03-24T11:40:12.898Z,2.28
2023-03-24T11:42:51.504Z,3.05
2023-03-24T11:45:33.680Z,2.72
2023-03-24T11:50:39.774Z,2.58
2023-03-24T11:53:16.480Z,3.22
2023-03-24T11:55:55.081Z,3.08
2023-03-24T11:58:33.742Z,2.63
2023-03-24T12:01:06.728Z,2.08
2023-03-24T12:03:58.331Z,2.72
2023-03-24T12:06:31.460Z,4.07
2023-03-24T12:09:07.691Z,3.50
2023-03-24T12:11:43.806Z,2.83
2023-03-24T12:14:21.259Z,2.75
2023-03-24T12:17:04.139Z,3.08
2023-03-24T12:19:42.528Z,3.40
2023-03-24T12:22:20.348Z,4.05
2023-03-24T12:24:55.981Z,2.90
2023-03-24T12:27:47.252Z,3.60
2023-03-24T12:30:32.047Z,2.75
2023-03-24T12:33:13.896Z,3.03
2023-03-24T12:35:52.657Z,2.50
2023-03-24T12:38:28.619Z,2.67
2023-03-24T12:41:08.166Z,2.72
2023-03-24T12:43:41.614Z,1.92
2023-03-24T12:46:46.576Z,2.30
2023-03-24T12:49:33.969Z,22.02
2023-03-24T12:52:19.158Z,15.75
2023-03-24T12:54:55.020Z,28.58
2023-03-24T12:57:28.884Z,28.27
2023-03-24T13:00:08.616Z,16.50
2023-03-24T13:03:02.187Z,19.13
2023-03-24T13:05:38.189Z,17.55
2023-03-24T13:08:18.019Z,29.23
2023-03-24T13:10:52.195Z,20.48
2023-03-24T13:13:37.918Z,31.02
2023-03-24T13:16:13.711Z,16.92
2023-03-24T13:18:48.061Z,7.85
2023-03-24T13:21:22.668Z,9.40
2023-03-24T13:24:08.641Z,4.78
2023-03-24T13:26:50.130Z,5.57
2023-03-24T13:29:38.416Z,5.20
2023-03-24T13:32:21.224Z,5.20
2023-03-24T13:35:12.243Z,5.70
2023-03-24T13:37:52.968Z,4.10
2023-03-24T13:40:29.450Z,3.03
2023-03-24T13:43:11.837Z,3.53
2023-03-24T13:45:53.842Z,2.90
2023-03-24T13:48:38.452Z,3.17
2023-03-24T13:51:20.321Z,3.17
2023-03-24T13:53:57.553Z,2.53
2023-03-24T13:56:32.959Z,2.22
2023-03-24T13:59:07.844Z,1.50
2023-03-24T14:01:42.628Z,2.65
2023-03-24T14:04:15.648Z,1.70
2023-03-24T14:06:49.405Z,2.50
2023-03-24T14:09:22.494Z,1.73
2023-03-24T14:11:55.353Z,2.10
2023-03-24T14:14:29.617Z,2.03
2023-03-24T14:17:05.256Z,1.90
2023-03-24T14:19:40.887Z,2.28
2023-03-24T14:22:22.917Z,1.73
2023-03-24T14:25:07.395Z,2.10
2023-03-24T14:27:48.845Z,1.85
2023-03-24T14:30:23.583Z,2.08
2023-03-24T14:32:57.279Z,2.38
2023-03-24T14:35:33.486Z,3.42
2023-03-24T14:38:20.219Z,1.65
2023-03-24T14:40:57.126Z,2.13
2023-03-24T14:43:49.733Z,2.28
2023-03-24T14:46:22.749Z,2.50
2023-03-24T14:48:56.746Z,2.00
2023-03-24T14:51:39.494Z,2.97
2023-03-24T14:54:17.807Z,3.30
2023-03-24T14:56:53.619Z,3.90
2023-03-24T14:59:47.851Z,5.72
2023-03-24T15:02:20.889Z,2.35
2023-03-24T15:05:12.259Z,2.60
2023-03-24T15:08:00.169Z,2.78
2023-03-24T15:10:48.137Z,2.63
2023-03-24T15:13:33.360Z,2.47
2023-03-24T15:16:26.765Z,2.35
2023-03-24T15:19:31.926Z,2.67
2023-03-24T15:22:11.153Z,2.65
2023-03-24T15:24:47.090Z,3.13
2023-03-24T15:27:24.984Z,2.58
2023-03-24T15:29:59.574Z,2.00
2023-03-24T15:32:32.687Z,2.78
2023-03-24T15:35:07.101Z,3.40
2023-03-24T15:37:48.557Z,3.53
2023-03-24T15:40:27.921Z,3.33
2023-03-24T15:43:02.457Z,3.22
2023-03-24T15:45:44.130Z,2.80
2023-03-24T15:48:20.958Z,3.17
2023-03-24T15:51:05.403Z,2.95
2023-03-24T15:53:42.365Z,2.97
2023-03-24T15:56:20.407Z,3.50
2023-03-24T15:59:09.609Z,3.40
2023-03-24T16:01:44.997Z,2.40
2023-03-24T16:04:20.828Z,2.92
2023-03-24T16:06:54.591Z,2.95
2023-03-24T16:09:37.545Z,2.38
2023-03-24T16:12:11.171Z,2.47
2023-03-24T16:14:43.800Z,2.80
2023-03-24T16:17:16.778Z,4.10
2023-03-24T16:19:49.401Z,4.45
2023-03-24T16:22:22.451Z,4.43
2023-03-24T16:24:55.060Z,3.67
2023-03-24T16:27:27.997Z,3.90
2023-03-24T16:30:01.308Z,4.15
2023-03-24T16:32:34.501Z,2.70
2023-03-24T16:35:07.748Z,3.08
2023-03-24T16:37:42.516Z,5.07
2023-03-24T16:40:20.328Z,5.68
2023-03-24T16:42:53.433Z,7.85
2023-03-24T16:45:26.211Z,3.72
2023-03-24T16:47:59.850Z,5.38
2023-03-24T16:50:40.233Z,4.80
2023-03-24T16:53:13.497Z,4.68
2023-03-24T16:55:47.331Z,4.95
2023-03-24T16:58:20.349Z,5.07
2023-03-24T17:00:53.977Z,4.53
2023-03-24T17:03:30.170Z,5.43
2023-03-24T17:06:03.977Z,3.53
2023-03-24T17:08:37.011Z,3.10
2023-03-24T17:11:10.424Z,4.47
2023-03-24T17:13:43.425Z,3.63
2023-03-24T17:16:16.317Z,3.70
2023-03-24T17:18:49.613Z,2.85
2023-03-24T17:21:23.368Z,3.30
2023-03-24T17:23:56.626Z,2.42
2023-03-24T17:26:30.926Z,6.63
2023-03-24T17:29:05.036Z,22.23
2023-03-24T17:31:37.750Z,6.47
2023-03-24T17:34:21.708Z,4.63
2023-03-24T17:36:54.802Z,4.72
2023-03-24T17:39:27.823Z,7.85
2023-03-24T17:42:01.894Z,4.95
2023-03-24T17:44:34.864Z,4.38
2023-03-24T17:47:07.777Z,4.68
2023-03-24T17:49:40.994Z,4.60
2023-03-24T17:52:13.594Z,4.68
2023-03-24T17:54:46.690Z,4.75
2023-03-24T17:57:19.352Z,5.07
2023-03-24T17:59:53.152Z,5.32
2023-03-24T18:02:26.046Z,5.03
2023-03-24T18:04:59.154Z,9.18
2023-03-24T18:07:33.314Z,5.18
2023-03-24T18:10:06.884Z,4.95
2023-03-24T18:12:39.579Z,4.57
2023-03-24T18:15:13.119Z,3.90
2023-03-24T18:17:45.758Z,4.50
2023-03-24T18:20:19.390Z,3.53
2023-03-24T18:22:52.589Z,4.47
2023-03-24T18:25:25.607Z,4.72
2023-03-24T18:27:58.318Z,5.03
2023-03-24T18:30:31.244Z,4.47
2023-03-24T18:33:04.008Z,5.20
2023-03-24T18:35:37.097Z,4.70
2023-03-24T18:38:09.872Z,5.25
2023-03-24T18:40:42.930Z,5.47
2023-03-24T18:43:15.555Z,6.03
2023-03-24T18:45:49.100Z,7.25
2023-03-24T18:48:22.319Z,6.93
2023-03-24T18:50:55.441Z,4.45
2023-03-24T18:53:28.025Z,3.70
2023-03-24T18:56:02.047Z,2.45
2023-03-24T18:58:35.050Z,2.80
2023-03-24T19:01:12.438Z,3.22
2023-03-24T19:03:45.349Z,2.72
2023-03-24T19:06:18.649Z,2.92
2023-03-24T19:08:52.358Z,3.83
2023-03-24T19:11:26.113Z,3.35
2023-03-24T19:13:59.721Z,3.08
2023-03-24T19:16:32.934Z,3.67
2023-03-24T19:19:05.571Z,2.95
2023-03-24T19:21:40.700Z,4.07
2023-03-24T19:24:14.287Z,3.97
2023-03-24T19:26:47.328Z,3.65
2023-03-24T19:29:20.141Z,5.28
2023-03-24T19:31:53.275Z,4.60
2023-03-24T19:34:26.149Z,3.88
2023-03-24T19:36:59.165Z,3.55
2023-03-24T19:39:31.871Z,2.72
2023-03-24T19:42:08.045Z,6.68
2023-03-24T19:44:40.663Z,6.22
2023-03-24T19:47:13.728Z,5.50
2023-03-24T19:49:46.456Z,4.03
2023-03-24T19:52:19.550Z,2.55
2023-03-24T19:54:52.994Z,2.50
2023-03-24T19:57:26.039Z,1.20
2023-03-24T19:59:58.648Z,0.98
2023-03-24T20:02:31.803Z,1.77
2023-03-24T20:05:05.212Z,1.45
2023-03-24T20:07:38.170Z,1.35
2023-03-24T20:10:10.867Z,1.40
2023-03-24T20:12:43.847Z,1.02
2023-03-24T20:15:16.515Z,1.10
2023-03-24T20:17:49.678Z,1.20
2023-03-24T20:20:22.786Z,1.20
2023-03-24T20:22:56.149Z,1.38
2023-03-24T20:25:29.283Z,0.85
2023-03-24T20:28:02.845Z,1.50
2023-03-24T20:30:35.695Z,1.10
2023-03-24T20:33:08.873Z,1.25
2023-03-24T20:35:42.868Z,1.42
2023-03-24T20:38:16.028Z,1.30
2023-03-24T20:40:56.887Z,1.45
2023-03-24T20:43:30.275Z,1.70
2023-03-24T20:46:07.420Z,1.95
2023-03-24T20:48:40.508Z,2.03
2023-03-24T20:51:13.862Z,2.55
2023-03-24T20:53:49.741Z,2.40
2023-03-24T20:56:22.799Z,1.92
2023-03-24T20:58:55.759Z,4.22
2023-03-24T21:01:36.347Z,3.58
2023-03-24T21:04:10.407Z,2.78
2023-03-24T21:06:43.581Z,1.95
2023-03-24T21:09:17.393Z,1.75
2023-03-24T21:11:50.105Z,1.92
2023-03-24T21:14:23.466Z,1.88
2023-03-24T21:16:56.185Z,3.28
2023-03-24T21:19:29.444Z,2.75
2023-03-24T21:22:03.518Z,1.73
2023-03-24T21:24:36.532Z,2.45
2023-03-24T21:27:09.168Z,1.83
2023-03-24T21:29:42.148Z,1.85
2023-03-24T21:32:15.129Z,1.52
2023-03-24T21:34:48.087Z,1.95
2023-03-24T21:37:20.627Z,1.63
2023-03-24T21:39:53.660Z,2.75
2023-03-24T21:42:26.208Z,1.55
2023-03-24T21:44:59.726Z,2.65
2023-03-24T21:47:32.497Z,3.08
2023-03-24T21:50:05.952Z,3.00
2023-03-24T21:52:39.750Z,2.63
2023-03-24T21:55:15.149Z,2.00
2023-03-24T21:57:49.193Z,1.65
2023-03-24T22:00:26.592Z,1.95
2023-03-24T22:03:01.980Z,12.20
2023-03-24T22:05:38.213Z,13.18
2023-03-24T22:08:10.906Z,7.97
2023-03-24T22:10:46.330Z,4.07
2023-03-24T22:13:19.292Z,4.28
2023-03-24T22:15:53.189Z,6.53
2023-03-24T22:18:26.583Z,16.65
2023-03-24T22:21:03.340Z,10.05
2023-03-24T22:23:39.848Z,4.82
2023-03-24T22:26:14.547Z,2.78
2023-03-24T22:28:47.272Z,2.70
2023-03-24T22:31:23.412Z,1.83
2023-03-24T22:33:56.700Z,1.50
2023-03-24T22:36:29.627Z,1.85
2023-03-24T22:39:02.217Z,2.40
2023-03-24T22:41:35.349Z,2.40
2023-03-24T22:44:08.117Z,2.30
2023-03-24T22:46:41.108Z,3.15
2023-03-24T22:49:13.784Z,3.22
2023-03-24T22:51:46.874Z,2.47
2023-03-24T22:54:19.495Z,2.47
2023-03-24T22:56:52.800Z,2.45
2023-03-24T22:59:26.099Z,2.10
2023-03-24T23:02:09.204Z,2.22
2023-03-24T23:04:45.318Z,2.80
2023-03-24T23:07:18.410Z,3.38
2023-03-24T23:09:53.584Z,4.35
2023-03-24T23:12:27.032Z,2.75
2023-03-24T23:14:59.688Z,4.38
2023-03-24T23:17:32.759Z,4.22
2023-03-24T23:20:07.753Z,3.40
2023-03-24T23:22:41.432Z,3.05
2023-03-24T23:25:14.937Z,3.35
2023-03-24T23:27:48.256Z,4.55
2023-03-24T23:30:22.186Z,3.10
2023-03-24T23:32:57.774Z,3.97
2023-03-24T23:35:31.377Z,2.40
2023-03-24T23:38:05.858Z,2.90
2023-03-24T23:40:38.480Z,2.08
2023-03-24T23:43:11.707Z,2.28
2023-03-24T23:45:45.708Z,2.60
2023-03-24T23:48:18.701Z,1.73
2023-03-24T23:50:58.672Z,2.22
2023-03-24T23:53:31.897Z,1.80
2023-03-24T23:56:09.356Z,1.83
2023-03-24T23:58:43.404Z,2.00
